createdAt,value
2019-04-20T00:01:03.273Z,7.03
2019-04-20T00:03:39.846Z,7.03
2019-04-20T00:06:09.188Z,7.12
2019-04-20T00:08:42.717Z,6.87
2019-04-20T00:11:21.888Z,6.90
2019-04-20T00:13:57.745Z,7.12
2019-04-20T00:16:21.170Z,7.00
2019-04-20T00:18:56.575Z,6.42
2019-04-20T00:21:46.919Z,6.72
2019-04-20T00:24:21.019Z,6.75
2019-04-20T00:29:40.705Z,6.67
2019-04-20T00:32:06.335Z,6.67
2019-04-20T00:34:32.002Z,6.62
2019-04-20T00:37:00.613Z,7.12
2019-04-20T00:39:32.271Z,6.97
2019-04-20T00:42:10.722Z,6.83
2019-04-20T00:44:44.085Z,6.70
2019-04-20T00:47:30.711Z,7.08
2019-04-20T00:50:04.066Z,6.47
2019-04-20T00:52:32.834Z,7.15
2019-04-20T00:54:55.914Z,7.80
2019-04-20T00:57:37.965Z,8.03
2019-04-20T01:00:17.613Z,8.20
2019-04-20T01:02:45.435Z,8.50
2019-04-20T01:05:27.920Z,7.95
2019-04-20T01:08:00.171Z,7.40
2019-04-20T01:10:35.387Z,7.30
2019-04-20T01:13:11.044Z,8.43
2019-04-20T01:15:42.935Z,7.22
2019-04-20T01:18:10.777Z,7.17
2019-04-20T01:20:43.029Z,8.35
2019-04-20T01:23:19.084Z,7.55
2019-04-20T01:25:55.851Z,8.48
2019-04-20T01:28:37.557Z,9.55
2019-04-20T01:31:06.728Z,9.63
2019-04-20T01:33:40.057Z,8.53
2019-04-20T01:36:19.469Z,8.78
2019-04-20T01:38:47.325Z,7.42
2019-04-20T01:41:07.890Z,7.87
2019-04-20T01:43:39.579Z,8.90
2019-04-20T01:46:15.750Z,8.83
2019-04-20T01:48:44.734Z,7.62
2019-04-20T01:51:21.170Z,8.00
2019-04-20T01:54:06.331Z,7.67
2019-04-20T01:56:42.651Z,6.78
2019-04-20T01:59:23.076Z,6.67
2019-04-20T02:02:04.654Z,7.25
2019-04-20T02:04:40.432Z,7.70
2019-04-20T02:07:10.348Z,7.70
2019-04-20T02:09:49.578Z,7.78
2019-04-20T02:12:22.350Z,7.35
2019-04-20T02:14:54.046Z,7.25
2019-04-20T02:17:33.589Z,7.42
2019-04-20T02:20:15.590Z,7.30
2019-04-20T02:22:46.592Z,7.47
2019-04-20T02:25:03.521Z,7.78
2019-04-20T02:27:44.667Z,7.28
2019-04-20T02:30:40.355Z,6.75
2019-04-20T02:33:31.505Z,6.58
2019-04-20T02:36:11.087Z,6.83
2019-04-20T02:41:51.674Z,8.10
2019-04-20T02:44:16.072Z,6.90
2019-04-20T02:47:07.596Z,6.87
2019-04-20T02:49:29.966Z,9.05
2019-04-20T02:51:52.426Z,7.17
2019-04-20T02:54:21.950Z,7.50
2019-04-20T02:57:12.140Z,7.50
2019-04-20T03:01:51.741Z,6.47
2019-04-20T03:04:16.266Z,7.15
2019-04-20T03:06:55.002Z,6.75
2019-04-20T03:09:36.822Z,7.50
2019-04-20T03:12:08.220Z,7.22
2019-04-20T03:14:36.218Z,7.37
2019-04-20T03:17:15.268Z,7.53
2019-04-20T03:19:41.160Z,7.40
2019-04-20T03:22:21.396Z,8.70
2019-04-20T03:24:53.948Z,7.60
2019-04-20T03:27:25.128Z,8.08
2019-04-20T03:30:05.871Z,7.80
2019-04-20T03:35:20.042Z,8.43
2019-04-20T03:37:48.713Z,8.60
2019-04-20T03:40:19.125Z,9.03
2019-04-20T03:42:35.006Z,8.30
2019-04-20T03:45:12.483Z,10.45
2019-04-20T03:47:52.939Z,9.15
2019-04-20T03:50:38.538Z,9.88
2019-04-20T03:53:12.900Z,9.15
2019-04-20T03:55:51.629Z,9.63
2019-04-20T03:58:46.042Z,10.60
2019-04-20T04:01:55.564Z,8.45
2019-04-20T04:04:16.915Z,7.58
2019-04-20T04:06:37.345Z,8.95
2019-04-20T04:09:15.266Z,9.70
2019-04-20T04:11:58.523Z,7.67
2019-04-20T04:14:17.813Z,8.05
2019-04-20T04:16:54.342Z,6.70
2019-04-20T04:19:28.448Z,7.17
2019-04-20T04:22:08.656Z,6.78
2019-04-20T04:24:39.442Z,6.28
2019-04-20T04:27:22.534Z,6.42
2019-04-20T04:29:56.998Z,6.97
2019-04-20T04:32:47.972Z,6.22
2019-04-20T04:34:58.079Z,7.47
2019-04-20T04:37:33.824Z,8.20
2019-04-20T04:40:18.260Z,7.62
2019-04-20T04:42:42.671Z,7.50
2019-04-20T04:45:01.583Z,7.80
2019-04-20T04:47:28.458Z,9.58
2019-04-20T04:50:09.570Z,7.75
2019-04-20T04:52:47.812Z,8.08
2019-04-20T04:55:20.692Z,6.92
2019-04-20T04:57:41.526Z,6.83
2019-04-20T05:00:19.933Z,6.72
2019-04-20T05:02:53.898Z,6.47
2019-04-20T05:05:41.389Z,6.85
2019-04-20T05:08:07.241Z,7.20
2019-04-20T05:10:29.018Z,6.62
2019-04-20T05:13:00.880Z,6.80
2019-04-20T05:15:48.408Z,6.95
2019-04-20T05:18:34.436Z,6.90
2019-04-20T05:20:58.698Z,6.37
2019-04-20T05:23:28.074Z,6.28
2019-04-20T05:26:14.182Z,7.03
2019-04-20T05:28:37.146Z,5.83
2019-04-20T05:31:02.989Z,5.92
2019-04-20T05:33:57.092Z,7.22
2019-04-20T05:36:24.753Z,7.53
2019-04-20T05:39:02.238Z,6.78
2019-04-20T05:41:32.890Z,6.28
2019-04-20T05:44:05.067Z,6.55
2019-04-20T05:46:41.182Z,7.05
2019-04-20T05:49:18.764Z,6.60
2019-04-20T05:51:48.670Z,7.03
2019-04-20T05:54:19.365Z,6.45
2019-04-20T05:56:58.886Z,6.12
2019-04-20T05:59:27.082Z,5.58
2019-04-20T06:02:07.604Z,6.10
2019-04-20T06:04:46.381Z,5.67
2019-04-20T06:07:11.301Z,5.60
2019-04-20T06:09:52.422Z,5.72
2019-04-20T06:15:02.823Z,6.10
2019-04-20T06:17:52.753Z,4.53
2019-04-20T06:20:38.734Z,4.07
2019-04-20T06:23:34.621Z,4.22
2019-04-20T06:28:30.037Z,4.33
2019-04-20T06:31:08.866Z,3.87
2019-04-20T06:34:30.402Z,4.72
2019-04-20T06:39:32.598Z,4.25
2019-04-20T06:44:36.968Z,4.33
2019-04-20T06:47:10.339Z,4.50
2019-04-20T06:50:00.430Z,4.92
2019-04-20T06:55:04.065Z,4.10
2019-04-20T06:57:40.564Z,4.55
2019-04-20T07:00:15.695Z,5.55
2019-04-20T07:02:59.041Z,5.25
2019-04-20T07:05:23.640Z,4.67
2019-04-20T07:08:00.423Z,4.50
2019-04-20T07:10:31.355Z,4.50
2019-04-20T07:12:56.553Z,4.00
2019-04-20T07:15:28.869Z,4.50
2019-04-20T07:18:09.236Z,4.83
2019-04-20T07:21:12.802Z,4.80
2019-04-20T07:23:48.178Z,4.15
2019-04-20T07:26:15.337Z,4.37
2019-04-20T07:28:41.337Z,4.92
2019-04-20T07:31:11.403Z,4.72
2019-04-20T07:33:51.198Z,4.50
2019-04-20T07:36:24.475Z,4.78
2019-04-20T07:38:55.266Z,4.20
2019-04-20T07:41:35.508Z,4.22
2019-04-20T07:44:03.342Z,3.90
2019-04-20T07:46:51.083Z,3.55
2019-04-20T07:49:07.626Z,3.60
2019-04-20T07:51:25.981Z,4.15
2019-04-20T07:54:17.667Z,3.12
2019-04-20T07:56:47.775Z,4.72
2019-04-20T07:59:13.934Z,3.75
2019-04-20T08:02:01.462Z,3.70
2019-04-20T08:04:30.044Z,3.67
2019-04-20T08:06:51.864Z,3.58
2019-04-20T08:09:26.153Z,3.67
2019-04-20T08:12:26.874Z,3.65
2019-04-20T08:14:56.876Z,4.12
2019-04-20T08:17:30.402Z,3.27
2019-04-20T08:19:59.559Z,4.53
2019-04-20T08:22:33.950Z,3.85
2019-04-20T08:24:59.297Z,4.08
2019-04-20T08:27:21.249Z,3.75
2019-04-20T08:30:20.649Z,3.10
2019-04-20T08:35:46.367Z,4.67
2019-04-20T08:38:38.283Z,5.05
2019-04-20T08:40:47.866Z,5.28
2019-04-20T08:43:38.176Z,3.52
2019-04-20T08:45:52.430Z,4.15
2019-04-20T08:48:28.749Z,4.03
2019-04-20T08:50:57.778Z,4.10
2019-04-20T08:53:36.982Z,4.33
2019-04-20T08:56:02.280Z,5.15
2019-04-20T08:58:22.643Z,2.60
2019-04-20T09:00:58.693Z,3.42
2019-04-20T09:03:32.571Z,3.67
2019-04-20T09:06:08.602Z,3.70
2019-04-20T09:08:46.521Z,4.05
2019-04-20T09:11:24.261Z,4.12
2019-04-20T09:13:47.701Z,3.72
2019-04-20T09:16:19.952Z,3.08
2019-04-20T09:18:57.485Z,3.52
2019-04-20T09:21:34.183Z,3.52
2019-04-20T09:24:22.859Z,4.00
2019-04-20T09:26:47.986Z,3.58
2019-04-20T09:29:18.488Z,2.98
2019-04-20T09:31:52.087Z,2.77
2019-04-20T09:34:37.111Z,3.50
2019-04-20T09:37:21.457Z,3.62
2019-04-20T09:39:51.406Z,4.65
2019-04-20T09:42:09.496Z,3.80
2019-04-20T09:44:46.198Z,4.00
2019-04-20T09:47:14.345Z,3.60
2019-04-20T09:49:58.997Z,6.75
2019-04-20T09:52:31.268Z,4.25
2019-04-20T09:55:07.846Z,3.42
2019-04-20T09:57:46.723Z,3.77
2019-04-20T10:00:16.844Z,3.92
2019-04-20T10:02:36.333Z,3.55
2019-04-20T10:05:09.403Z,3.40
2019-04-20T10:07:42.232Z,4.15
2019-04-20T10:10:24.592Z,4.00
2019-04-20T10:12:48.539Z,3.12
2019-04-20T10:15:23.483Z,3.95
2019-04-20T10:17:53.950Z,3.75
2019-04-20T10:20:30.974Z,4.95
2019-04-20T10:22:58.799Z,4.42
2019-04-20T10:25:30.915Z,4.03
2019-04-20T10:28:03.371Z,4.10
2019-04-20T10:30:36.611Z,3.90
2019-04-20T10:33:09.880Z,3.75
2019-04-20T10:35:41.788Z,4.10
2019-04-20T10:38:15.709Z,3.83
2019-04-20T10:40:57.272Z,4.05
2019-04-20T10:43:21.965Z,3.50
2019-04-20T10:45:54.773Z,4.15
2019-04-20T10:48:26.944Z,3.60
2019-04-20T10:50:59.007Z,3.83
2019-04-20T10:53:32.193Z,3.80
2019-04-20T10:56:05.236Z,3.75
2019-04-20T10:58:37.789Z,3.90
2019-04-20T11:01:09.908Z,3.40
2019-04-20T11:03:42.765Z,4.10
2019-04-20T11:06:14.570Z,4.05
2019-04-20T11:08:46.684Z,4.17
2019-04-20T11:11:25.190Z,3.60
2019-04-20T11:13:51.479Z,4.00
2019-04-20T11:16:24.270Z,4.00
2019-04-20T11:18:56.001Z,3.35
2019-04-20T11:21:28.284Z,4.25
2019-04-20T11:24:00.389Z,3.70
2019-04-20T11:26:35.384Z,3.30
2019-04-20T11:29:06.393Z,4.12
2019-04-20T11:31:43.196Z,3.52
2019-04-20T11:34:14.923Z,4.78
2019-04-20T11:36:45.436Z,3.80
2019-04-20T11:39:17.121Z,4.15
2019-04-20T11:41:49.753Z,5.42
2019-04-20T11:44:21.252Z,4.62
2019-04-20T11:46:54.463Z,4.15
2019-04-20T11:49:26.094Z,3.70
2019-04-20T11:51:59.383Z,3.20
2019-04-20T11:54:32.383Z,3.42
2019-04-20T11:57:04.040Z,3.60
2019-04-20T11:59:37.120Z,4.17
2019-04-20T12:02:15.831Z,3.80
2019-04-20T12:05:05.858Z,3.52
2019-04-20T12:07:24.913Z,3.77
2019-04-20T12:10:05.673Z,5.00
2019-04-20T12:12:40.055Z,3.80
2019-04-20T12:15:06.601Z,4.30
2019-04-20T12:17:38.048Z,3.92
2019-04-20T12:20:10.944Z,3.70
2019-04-20T12:22:42.382Z,3.85
2019-04-20T12:27:48.834Z,3.90
2019-04-20T12:30:19.630Z,3.72
2019-04-20T12:32:56.840Z,3.60
2019-04-20T12:35:26.499Z,4.17
2019-04-20T12:37:58.959Z,3.37
2019-04-20T12:40:30.617Z,3.47
2019-04-20T12:43:02.178Z,4.72
2019-04-20T12:45:35.669Z,3.90
2019-04-20T12:48:08.034Z,4.10
2019-04-20T12:50:39.703Z,5.00
2019-04-20T12:53:12.836Z,3.95
2019-04-20T12:55:44.663Z,3.62
2019-04-20T12:58:16.734Z,4.33
2019-04-20T13:00:52.150Z,3.75
2019-04-20T13:03:23.914Z,5.83
2019-04-20T13:05:56.107Z,3.00
2019-04-20T13:08:36.241Z,5.58
2019-04-20T13:11:10.945Z,5.20
2019-04-20T13:16:28.497Z,4.25
2019-04-20T13:19:03.392Z,4.25
2019-04-20T13:21:35.190Z,4.00
2019-04-20T13:24:07.110Z,3.75
2019-04-20T13:26:38.808Z,2.87
2019-04-20T13:29:10.954Z,4.85
2019-04-20T13:31:43.860Z,4.28
2019-04-20T13:34:15.618Z,3.75
2019-04-20T13:36:48.420Z,4.15
2019-04-20T13:39:19.974Z,3.20
2019-04-20T13:44:24.035Z,4.10
2019-04-20T13:46:56.728Z,5.35
2019-04-20T13:49:29.162Z,3.25
2019-04-20T13:52:02.299Z,3.77
2019-04-20T13:54:33.973Z,3.92
2019-04-20T13:57:10.176Z,3.83
2019-04-20T13:59:44.140Z,4.28
2019-04-20T14:02:30.916Z,3.30
2019-04-20T14:05:04.635Z,4.80
2019-04-20T14:07:37.844Z,4.25
2019-04-20T14:10:09.504Z,4.42
2019-04-20T14:12:52.384Z,5.30
2019-04-20T14:15:15.278Z,5.00
2019-04-20T14:17:47.013Z,3.85
2019-04-20T14:20:21.904Z,5.65
2019-04-20T14:22:54.660Z,4.55
2019-04-20T14:25:27.065Z,4.47
2019-04-20T14:27:58.663Z,3.50
2019-04-20T14:30:30.982Z,4.75
2019-04-20T14:33:03.066Z,22.13
2019-04-20T14:35:35.054Z,3.95
2019-04-20T14:38:07.897Z,4.00
2019-04-20T14:40:39.989Z,4.85
2019-04-20T14:43:13.052Z,4.97
2019-04-20T14:45:47.067Z,4.75
2019-04-20T14:48:18.758Z,4.47
2019-04-20T14:50:51.574Z,5.33
2019-04-20T14:53:25.408Z,4.60
2019-04-20T14:55:57.676Z,5.17
2019-04-20T14:58:49.202Z,4.62
2019-04-20T15:01:22.846Z,3.70
2019-04-20T15:03:59.823Z,5.08
2019-04-20T15:06:29.591Z,5.15
2019-04-20T15:09:01.385Z,3.70
2019-04-20T15:11:36.560Z,4.95
2019-04-20T15:14:09.018Z,5.03
2019-04-20T15:16:42.694Z,4.22
2019-04-20T15:19:17.818Z,3.77
2019-04-20T15:21:51.393Z,3.92
2019-04-20T15:24:23.776Z,3.90
2019-04-20T15:26:56.468Z,5.12
2019-04-20T15:29:30.424Z,10.30
2019-04-20T15:32:04.174Z,5.28
2019-04-20T15:34:36.979Z,3.95
2019-04-20T15:37:09.902Z,4.10
2019-04-20T15:39:43.211Z,4.22
2019-04-20T15:42:15.100Z,3.80
2019-04-20T15:44:47.255Z,4.20
2019-04-20T15:47:20.261Z,3.77
2019-04-20T15:49:51.928Z,4.15
2019-04-20T15:52:31.411Z,3.85
2019-04-20T15:55:01.875Z,4.37
2019-04-20T15:57:33.193Z,4.10
2019-04-20T16:00:06.682Z,3.98
2019-04-20T16:02:41.279Z,9.58
2019-04-20T16:05:28.254Z,19.60
2019-04-20T16:08:03.942Z,5.55
2019-04-20T16:10:35.001Z,7.75
2019-04-20T16:13:19.358Z,4.60
2019-04-20T16:15:40.220Z,6.50
2019-04-20T16:20:52.951Z,5.70
2019-04-20T16:23:18.554Z,7.25
2019-04-20T16:26:02.096Z,8.00
2019-04-20T16:28:35.316Z,8.68
2019-04-20T16:31:10.066Z,7.70
2019-04-20T16:33:40.442Z,10.03
2019-04-20T16:36:12.371Z,9.68
2019-04-20T16:38:45.507Z,12.33
2019-04-20T16:41:18.343Z,11.75
2019-04-20T16:43:51.521Z,11.20
2019-04-20T16:46:25.605Z,11.97
2019-04-20T16:48:56.989Z,8.68
2019-04-20T16:51:29.210Z,10.08
2019-04-20T16:54:01.600Z,9.43
2019-04-20T16:56:33.438Z,7.80
2019-04-20T16:59:09.724Z,7.95
2019-04-20T17:01:40.612Z,8.90
2019-04-20T17:04:17.165Z,7.53
2019-04-20T17:07:05.961Z,7.45
2019-04-20T17:09:38.424Z,8.00
2019-04-20T17:12:10.448Z,11.12
2019-04-20T17:14:43.336Z,13.28
2019-04-20T17:17:15.779Z,18.15
2019-04-20T17:19:49.293Z,18.62
2019-04-20T17:22:21.479Z,22.52
2019-04-20T17:24:53.774Z,20.50
2019-04-20T17:27:44.739Z,24.43
2019-04-20T17:30:27.108Z,21.42
2019-04-20T17:33:00.564Z,18.98
2019-04-20T17:35:46.299Z,17.80
2019-04-20T17:38:08.842Z,19.65
2019-04-20T17:41:01.517Z,23.47
2019-04-20T17:43:24.905Z,51.28
2019-04-20T17:45:55.796Z,25.80
2019-04-20T17:48:33.287Z,22.27
2019-04-20T17:51:20.775Z,19.60
2019-04-20T17:53:55.750Z,33.10
2019-04-20T17:56:22.431Z,25.77
2019-04-20T17:58:54.558Z,37.03
2019-04-20T18:01:48.945Z,32.78
2019-04-20T18:04:46.548Z,32.73
2019-04-20T18:06:53.757Z,21.73
2019-04-20T18:09:38.656Z,22.35
2019-04-20T18:11:55.503Z,18.60
2019-04-20T18:14:38.655Z,61.42
2019-04-20T18:17:25.954Z,17.62
2019-04-20T18:19:47.173Z,57.15
2019-04-20T18:22:19.513Z,37.63
2019-04-20T18:25:16.352Z,53.17
2019-04-20T18:27:41.379Z,58.23
2019-04-20T18:30:15.534Z,59.05
2019-04-20T18:32:37.844Z,70.83
2019-04-20T18:35:18.212Z,74.37
2019-04-20T18:37:58.946Z,71.25
2019-04-20T18:40:32.516Z,35.28
2019-04-20T18:43:05.243Z,37.75
2019-04-20T18:45:46.532Z,41.37
2019-04-20T18:48:24.618Z,42.60
2019-04-20T18:50:42.427Z,49.88
2019-04-20T18:53:19.045Z,47.08
2019-04-20T18:55:55.144Z,44.10
2019-04-20T18:58:20.701Z,53.13
2019-04-20T19:00:54.198Z,51.65
2019-04-20T19:03:32.716Z,47.40
2019-04-20T19:06:00.162Z,49.85
2019-04-20T19:08:39.109Z,48.75
2019-04-20T19:11:09.749Z,44.23
2019-04-20T19:13:44.134Z,45.98
2019-04-20T19:16:27.516Z,43.10
2019-04-20T19:19:04.370Z,49.13
2019-04-20T19:21:26.988Z,55.88
2019-04-20T19:24:06.604Z,55.03
2019-04-20T19:26:32.211Z,65.42
2019-04-20T19:29:14.013Z,43.65
2019-04-20T19:31:50.839Z,42.10
2019-04-20T19:34:26.437Z,50.88
2019-04-20T19:36:59.113Z,45.23
2019-04-20T19:39:32.163Z,46.83
2019-04-20T19:42:06.778Z,59.15
2019-04-20T19:44:41.935Z,68.50
2019-04-20T19:47:19.453Z,48.42
2019-04-20T19:49:40.758Z,49.88
2019-04-20T19:52:31.001Z,53.58
2019-04-20T19:54:55.518Z,56.48
2019-04-20T19:57:31.624Z,66.60
2019-04-20T19:59:49.630Z,70.83
2019-04-20T20:02:18.704Z,73.57
2019-04-20T20:04:57.294Z,106.58
2019-04-20T20:07:32.205Z,118.22
2019-04-20T20:10:00.520Z,88.75
2019-04-20T20:12:31.575Z,86.22
2019-04-20T20:15:06.438Z,85.35
2019-04-20T20:18:00.339Z,89.00
2019-04-20T20:20:30.853Z,122.42
2019-04-20T20:22:49.770Z,119.15
2019-04-20T20:25:19.016Z,101.10
2019-04-20T20:27:57.434Z,104.92
2019-04-20T20:30:32.836Z,96.53
2019-04-20T20:33:13.936Z,89.28
2019-04-20T20:35:38.201Z,111.62
2019-04-20T20:38:16.649Z,113.25
2019-04-20T20:40:51.608Z,113.42
2019-04-20T20:43:20.656Z,107.83
2019-04-20T20:46:01.181Z,72.97
2019-04-20T20:48:33.396Z,110.28
2019-04-20T20:51:10.433Z,85.92
2019-04-20T20:53:41.394Z,97.15
2019-04-20T20:56:06.310Z,105.50
2019-04-20T20:58:43.846Z,101.97
2019-04-20T21:01:12.960Z,93.17
2019-04-20T21:03:45.195Z,59.67
2019-04-20T21:06:16.743Z,53.92
2019-04-20T21:08:51.463Z,50.88
2019-04-20T21:11:25.313Z,55.88
2019-04-20T21:13:54.575Z,45.45
2019-04-20T21:16:31.850Z,49.48
2019-04-20T21:19:17.182Z,50.67
2019-04-20T21:21:46.338Z,48.98
2019-04-20T21:24:13.049Z,42.62
2019-04-20T21:26:44.117Z,44.18
2019-04-20T21:29:19.169Z,43.98
2019-04-20T21:31:55.569Z,56.65
2019-04-20T21:34:22.321Z,41.90
2019-04-20T21:37:01.861Z,42.83
2019-04-20T21:39:39.175Z,59.15
2019-04-20T21:42:09.175Z,57.78
2019-04-20T21:44:40.600Z,38.80
2019-04-20T21:47:09.149Z,56.45
2019-04-20T21:49:51.534Z,46.30
2019-04-20T21:52:22.996Z,54.42
2019-04-20T21:54:47.908Z,51.33
2019-04-20T21:57:20.014Z,38.60
2019-04-20T21:59:54.265Z,39.53
2019-04-20T22:02:30.679Z,65.52
2019-04-20T22:04:58.781Z,43.05
2019-04-20T22:07:30.535Z,43.13
2019-04-20T22:10:02.527Z,42.98
2019-04-20T22:12:41.614Z,41.80
2019-04-20T22:15:17.886Z,42.30
2019-04-20T22:17:42.780Z,41.55
2019-04-20T22:20:23.241Z,41.02
2019-04-20T22:23:01.133Z,39.25
2019-04-20T22:25:40.723Z,40.30
2019-04-20T22:27:58.219Z,41.35
2019-04-20T22:30:28.177Z,45.90
2019-04-20T22:33:23.669Z,41.92
2019-04-20T22:35:58.860Z,43.25
2019-04-20T22:38:27.253Z,42.90
2019-04-20T22:41:06.616Z,42.73
2019-04-20T22:43:36.910Z,44.35
2019-04-20T22:46:05.909Z,43.98
2019-04-20T22:48:45.022Z,42.88
2019-04-20T22:51:26.389Z,46.08
2019-04-20T22:53:54.371Z,49.18
2019-04-20T22:56:34.161Z,51.60
2019-04-20T22:59:01.069Z,52.45
2019-04-20T23:01:35.036Z,51.95
2019-04-20T23:03:59.027Z,51.73
2019-04-20T23:06:35.656Z,51.23
2019-04-20T23:09:10.235Z,49.83
2019-04-20T23:11:40.083Z,43.68
2019-04-20T23:14:12.028Z,42.88
2019-04-20T23:16:49.270Z,44.73
2019-04-20T23:19:28.817Z,42.23
2019-04-20T23:21:57.230Z,44.38
2019-04-20T23:24:23.753Z,43.92
2019-04-20T23:26:55.441Z,44.63
2019-04-20T23:29:32.655Z,45.17
2019-04-20T23:32:04.907Z,44.15
2019-04-20T23:34:37.619Z,43.70
2019-04-20T23:37:16.098Z,39.45
2019-04-20T23:39:45.282Z,42.78
2019-04-20T23:42:23.983Z,43.98
2019-04-20T23:45:07.508Z,32.80
2019-04-20T23:47:46.463Z,31.55
2019-04-20T23:50:37.326Z,30.15
2019-04-20T23:53:10.399Z,40.30
2019-04-20T23:55:27.660Z,41.58
2019-04-20T23:58:06.436Z,36.35
